Terminal Aerodrome Forecast
Issued by NWS

Current Version | Previous Version | Graphics & Text | Print | Product List | Glossary On
Versions: 1 2 3 4 5 6 7 8 9 10 11 12 13 14 15 16
000
FTUS41 KILN 270500 RRA
TAFLCK
TAF
KLCK 270545Z 2706/2806 22004KT P6SM SCT250
     FM271000 26005KT P6SM BKN100
     FM271300 34006KT P6SM SCT040 BKN100
     FM271500 34006KT P6SM VCTS BKN050CB
     FM272000 36005KT P6SM BKN120
     FM280000 03004KT P6SM SCT250=

USA.gov is the U.S. government's official web portal to all federal, state and local government web resources and services.